createdAt,value
2018-04-15T00:00:22.645Z,0
2018-04-15T00:00:48.815Z,0
2018-04-15T00:01:14.952Z,0
2018-04-15T00:01:41.115Z,0
2018-04-15T00:02:07.365Z,0
2018-04-15T00:02:33.494Z,0
2018-04-15T00:02:59.653Z,0
2018-04-15T00:03:25.925Z,0
2018-04-15T00:03:52.124Z,0
2018-04-15T00:04:18.263Z,0
2018-04-15T00:04:44.401Z,0
2018-04-15T00:05:10.582Z,0
2018-04-15T00:05:36.785Z,0
2018-04-15T00:06:02.959Z,0
2018-04-15T00:06:29.106Z,0
2018-04-15T00:06:55.320Z,0
2018-04-15T00:07:21.446Z,0
2018-04-15T00:07:47.612Z,0
2018-04-15T00:08:13.752Z,0
2018-04-15T00:08:39.916Z,0
2018-04-15T00:09:06.182Z,0
2018-04-15T00:09:32.254Z,0
2018-04-15T00:09:58.399Z,0
2018-04-15T00:10:24.563Z,0
2018-04-15T00:10:50.697Z,0
2018-04-15T00:11:16.869Z,0
2018-04-15T00:11:43.024Z,0
2018-04-15T00:12:09.161Z,0
2018-04-15T00:12:35.323Z,0
2018-04-15T00:13:01.488Z,0
2018-04-15T00:13:27.623Z,0
2018-04-15T00:13:53.769Z,0
2018-04-15T00:14:19.910Z,0
2018-04-15T00:14:46.046Z,0
2018-04-15T00:15:12.184Z,0
2018-04-15T00:15:38.368Z,0
2018-04-15T00:16:04.603Z,0
2018-04-15T00:16:31.028Z,0
2018-04-15T00:16:57.166Z,0
2018-04-15T00:17:23.309Z,0
2018-04-15T00:17:49.452Z,0
2018-04-15T00:18:15.615Z,0
2018-04-15T00:18:41.740Z,0
2018-04-15T00:19:07.913Z,0
2018-04-15T00:19:34.057Z,0
2018-04-15T00:20:00.263Z,0
2018-04-15T00:20:26.451Z,0
2018-04-15T00:20:52.814Z,0
2018-04-15T00:21:18.980Z,0
2018-04-15T00:21:45.118Z,0
2018-04-15T00:22:11.311Z,0
2018-04-15T00:22:37.490Z,0
2018-04-15T00:23:03.638Z,0
2018-04-15T00:23:29.778Z,0
2018-04-15T00:23:55.907Z,0
2018-04-15T00:24:22.136Z,0
2018-04-15T00:24:48.236Z,0
2018-04-15T00:25:14.378Z,0
2018-04-15T00:25:40.577Z,0
2018-04-15T00:26:06.651Z,0
2018-04-15T00:26:32.819Z,0
2018-04-15T00:26:58.985Z,0
2018-04-15T00:27:25.132Z,0
2018-04-15T00:27:51.322Z,0
2018-04-15T00:28:17.492Z,0
2018-04-15T00:28:43.762Z,0
2018-04-15T00:29:09.860Z,0
2018-04-15T00:29:36.026Z,0
2018-04-15T00:30:02.169Z,0
2018-04-15T00:30:28.301Z,0
2018-04-15T00:30:54.479Z,0
2018-04-15T00:31:20.657Z,0
2018-04-15T00:31:46.843Z,0
2018-04-15T00:32:13.017Z,0
2018-04-15T00:32:39.136Z,0
2018-04-15T00:33:05.330Z,0
2018-04-15T00:33:31.483Z,0
2018-04-15T00:33:57.615Z,0
2018-04-15T00:34:23.765Z,0
2018-04-15T00:34:49.893Z,0
2018-04-15T00:35:16.189Z,0
2018-04-15T00:35:42.336Z,0
2018-04-15T00:36:08.478Z,0
2018-04-15T00:36:34.621Z,0
2018-04-15T00:37:00.770Z,0
2018-04-15T00:37:26.896Z,0
2018-04-15T00:37:53.046Z,0
2018-04-15T00:38:19.213Z,0
2018-04-15T00:38:45.351Z,0
2018-04-15T00:39:11.546Z,0
2018-04-15T00:39:37.718Z,0
2018-04-15T00:40:03.852Z,0
2018-04-15T00:40:30.003Z,0
2018-04-15T00:40:57.370Z,0
2018-04-15T00:41:23.531Z,0
2018-04-15T00:41:49.697Z,0
2018-04-15T00:42:15.867Z,0
2018-04-15T00:42:42.014Z,0
2018-04-15T00:43:08.153Z,0
2018-04-15T00:43:34.295Z,0
2018-04-15T00:44:00.433Z,0
2018-04-15T00:44:26.577Z,0
2018-04-15T00:44:52.721Z,0
2018-04-15T00:45:18.884Z,0
2018-04-15T00:45:45.025Z,0
2018-04-15T00:46:11.171Z,0
2018-04-15T00:46:37.323Z,0
2018-04-15T00:47:03.462Z,0
2018-04-15T00:47:29.656Z,0
2018-04-15T00:47:55.800Z,0
2018-04-15T00:48:21.943Z,0
2018-04-15T00:48:48.081Z,0
2018-04-15T00:49:14.222Z,0
2018-04-15T00:49:40.380Z,0
2018-04-15T00:50:06.520Z,0
2018-04-15T00:50:32.675Z,0
2018-04-15T00:50:58.822Z,0
2018-04-15T00:51:24.962Z,0
2018-04-15T00:51:51.102Z,0
2018-04-15T00:52:17.232Z,0
2018-04-15T00:52:43.400Z,0
2018-04-15T00:53:09.539Z,0
2018-04-15T00:53:35.682Z,0
2018-04-15T00:54:01.827Z,0
2018-04-15T00:54:27.970Z,0
2018-04-15T00:54:54.130Z,0
2018-04-15T00:55:20.269Z,0
2018-04-15T00:55:46.407Z,0
2018-04-15T00:56:12.543Z,0
2018-04-15T00:56:38.678Z,0
2018-04-15T00:57:04.832Z,0
2018-04-15T00:57:30.990Z,0
2018-04-15T00:57:57.128Z,0
2018-04-15T00:58:23.294Z,0
2018-04-15T00:58:49.435Z,0
2018-04-15T00:59:15.595Z,0
2018-04-15T00:59:41.734Z,0
2018-04-15T01:00:07.871Z,0
2018-04-15T01:00:34.011Z,0
2018-04-15T01:01:00.153Z,0
2018-04-15T01:01:26.309Z,0
2018-04-15T01:01:52.465Z,0
2018-04-15T01:02:18.597Z,0
2018-04-15T01:02:44.766Z,0
2018-04-15T01:03:10.936Z,0
2018-04-15T01:03:37.070Z,0
2018-04-15T01:04:03.233Z,0
2018-04-15T01:04:29.426Z,0
2018-04-15T01:04:55.601Z,0
2018-04-15T01:05:21.754Z,0
2018-04-15T01:05:47.881Z,0
2018-04-15T01:06:14.014Z,0
2018-04-15T01:06:40.148Z,0
2018-04-15T01:07:06.290Z,0
2018-04-15T01:07:32.434Z,0
2018-04-15T01:07:58.571Z,0
2018-04-15T01:08:24.739Z,0
2018-04-15T01:08:50.904Z,0
2018-04-15T01:09:17.040Z,0
2018-04-15T01:09:43.181Z,0
2018-04-15T01:10:09.321Z,0
2018-04-15T01:10:35.459Z,0
2018-04-15T01:11:01.598Z,0
2018-04-15T01:11:27.737Z,0
2018-04-15T01:11:53.898Z,0
2018-04-15T01:12:20.062Z,0
2018-04-15T01:12:46.236Z,0
2018-04-15T01:13:12.361Z,0
2018-04-15T01:13:38.505Z,0
2018-04-15T01:14:04.640Z,0
2018-04-15T01:14:30.797Z,0
2018-04-15T01:14:56.943Z,0
2018-04-15T01:15:23.078Z,0
2018-04-15T01:15:49.245Z,0
2018-04-15T01:16:15.412Z,0
2018-04-15T01:16:41.552Z,0
2018-04-15T01:17:07.712Z,0
2018-04-15T01:17:33.853Z,0
2018-04-15T01:18:00.012Z,0
2018-04-15T01:18:26.173Z,0
2018-04-15T01:18:52.319Z,0
2018-04-15T01:19:18.453Z,0
2018-04-15T01:19:44.608Z,0
2018-04-15T01:20:10.757Z,0
2018-04-15T01:20:36.890Z,0
2018-04-15T01:21:03.032Z,0
2018-04-15T01:21:29.165Z,0
2018-04-15T01:21:55.309Z,0
2018-04-15T01:22:21.444Z,0
2018-04-15T01:22:47.590Z,0
2018-04-15T01:23:13.725Z,0
2018-04-15T01:23:39.860Z,0
2018-04-15T01:24:06.000Z,0
2018-04-15T01:24:32.138Z,0
2018-04-15T01:24:58.278Z,0
2018-04-15T01:25:24.420Z,0
2018-04-15T01:25:50.557Z,0
2018-04-15T01:26:16.695Z,0
2018-04-15T01:26:42.856Z,0
2018-04-15T01:27:08.995Z,0
2018-04-15T01:27:35.136Z,0
2018-04-15T01:28:01.299Z,0
2018-04-15T01:28:27.442Z,0
2018-04-15T01:28:53.573Z,0
2018-04-15T01:29:19.713Z,0
2018-04-15T01:29:45.859Z,0
2018-04-15T01:30:11.999Z,0
2018-04-15T01:30:38.138Z,0
2018-04-15T01:31:04.301Z,0
2018-04-15T01:31:30.446Z,0
2018-04-15T01:31:56.577Z,0
2018-04-15T01:32:22.723Z,0
2018-04-15T01:32:48.859Z,0
2018-04-15T01:33:15.005Z,0
2018-04-15T01:33:41.142Z,0
2018-04-15T01:34:07.282Z,0
2018-04-15T01:34:33.435Z,0
2018-04-15T01:34:59.576Z,0
2018-04-15T01:35:25.719Z,0
2018-04-15T01:35:51.857Z,0
2018-04-15T01:36:17.997Z,0
2018-04-15T01:36:44.135Z,0
2018-04-15T01:37:10.280Z,0
2018-04-15T01:37:36.437Z,0
2018-04-15T01:38:02.575Z,0
2018-04-15T01:38:28.712Z,0
2018-04-15T01:38:54.851Z,0
2018-04-15T01:39:20.991Z,0
2018-04-15T01:39:47.129Z,0
2018-04-15T01:40:13.290Z,0
2018-04-15T01:40:39.425Z,0
2018-04-15T01:41:05.567Z,0
2018-04-15T01:41:31.710Z,0
2018-04-15T01:41:57.851Z,0
2018-04-15T01:42:23.997Z,0
2018-04-15T01:42:50.152Z,0
2018-04-15T01:43:16.317Z,0
2018-04-15T01:43:42.481Z,0
2018-04-15T01:44:08.615Z,0
2018-04-15T01:44:34.757Z,0
2018-04-15T01:45:00.900Z,0
2018-04-15T01:45:27.036Z,0
2018-04-15T01:45:53.181Z,0
2018-04-15T01:46:19.343Z,0
2018-04-15T01:46:45.479Z,0
2018-04-15T01:47:11.620Z,0
2018-04-15T01:47:37.759Z,0
2018-04-15T01:48:03.896Z,0
2018-04-15T01:48:30.034Z,0
2018-04-15T01:48:56.173Z,0
2018-04-15T01:49:22.314Z,0
2018-04-15T01:49:48.455Z,0
2018-04-15T01:50:14.622Z,0
2018-04-15T01:50:40.753Z,0
2018-04-15T01:51:06.893Z,0
2018-04-15T01:51:33.033Z,0
2018-04-15T01:51:59.177Z,0
2018-04-15T01:52:25.318Z,0
2018-04-15T01:52:51.453Z,0
2018-04-15T01:53:17.595Z,0
2018-04-15T01:53:43.740Z,0
2018-04-15T01:54:09.902Z,0
2018-04-15T01:54:36.033Z,0
2018-04-15T01:55:02.179Z,0
2018-04-15T01:55:28.322Z,0
2018-04-15T01:55:54.462Z,0
2018-04-15T01:56:20.597Z,0
2018-04-15T01:56:46.763Z,0
2018-04-15T01:57:12.924Z,0
2018-04-15T01:57:39.067Z,0
2018-04-15T01:58:05.235Z,0
2018-04-15T01:58:31.371Z,0
2018-04-15T01:58:57.511Z,0
2018-04-15T01:59:23.651Z,0
2018-04-15T01:59:49.789Z,0
2018-04-15T02:00:15.930Z,0
2018-04-15T02:00:42.073Z,0
2018-04-15T02:01:08.234Z,0
2018-04-15T02:01:34.418Z,0
2018-04-15T02:02:00.556Z,0
2018-04-15T02:02:26.685Z,0
2018-04-15T02:02:52.824Z,0
2018-04-15T02:03:18.962Z,0
2018-04-15T02:03:45.101Z,0
2018-04-15T02:04:11.261Z,0
2018-04-15T02:04:37.405Z,0
2018-04-15T02:05:03.542Z,0
2018-04-15T02:05:29.678Z,0
2018-04-15T02:05:55.819Z,0
2018-04-15T02:06:21.959Z,0
2018-04-15T02:06:48.107Z,0
2018-04-15T02:07:14.245Z,0
2018-04-15T02:07:40.382Z,0
2018-04-15T02:08:06.524Z,0
2018-04-15T02:08:32.663Z,0
2018-04-15T02:08:58.805Z,0
2018-04-15T02:09:24.952Z,0
2018-04-15T02:09:51.094Z,0
2018-04-15T02:10:17.223Z,0
2018-04-15T02:10:43.367Z,0
2018-04-15T02:11:09.499Z,0
2018-04-15T02:11:35.641Z,0
2018-04-15T02:12:01.778Z,0
2018-04-15T02:12:27.924Z,0
2018-04-15T02:12:54.056Z,0
2018-04-15T02:13:20.200Z,0
2018-04-15T02:13:46.335Z,0
2018-04-15T02:14:12.495Z,0
2018-04-15T02:14:38.630Z,0
2018-04-15T02:15:04.773Z,0
2018-04-15T02:15:30.914Z,0
2018-04-15T02:15:57.053Z,0
2018-04-15T02:16:23.220Z,0
2018-04-15T02:16:49.359Z,0
2018-04-15T02:17:15.497Z,0
2018-04-15T02:17:41.678Z,0
2018-04-15T02:18:07.770Z,0
2018-04-15T02:18:33.944Z,0
2018-04-15T02:19:00.084Z,0
2018-04-15T02:19:26.243Z,0
2018-04-15T02:19:52.381Z,0
2018-04-15T02:20:18.515Z,0
2018-04-15T02:20:44.657Z,0
2018-04-15T02:21:10.799Z,0
2018-04-15T02:21:36.960Z,0
2018-04-15T02:22:03.120Z,0
2018-04-15T02:22:29.281Z,0
2018-04-15T02:22:55.435Z,0
2018-04-15T02:23:21.573Z,0
2018-04-15T02:23:47.718Z,0
2018-04-15T02:24:13.873Z,0
2018-04-15T02:24:40.014Z,0
2018-04-15T02:25:06.153Z,0
2018-04-15T02:25:32.294Z,0
2018-04-15T02:25:58.435Z,0
2018-04-15T02:26:24.584Z,0
2018-04-15T02:26:50.738Z,0
2018-04-15T02:27:16.902Z,0
2018-04-15T02:27:43.047Z,0
2018-04-15T02:28:09.205Z,0
2018-04-15T02:28:35.351Z,0
2018-04-15T02:29:01.509Z,0
2018-04-15T02:29:27.655Z,0
2018-04-15T02:29:53.810Z,0
2018-04-15T02:30:19.975Z,0
2018-04-15T02:30:46.115Z,0
2018-04-15T02:31:12.248Z,0
2018-04-15T02:31:38.393Z,0
2018-04-15T02:32:04.533Z,0
2018-04-15T02:32:30.695Z,0
2018-04-15T02:32:56.835Z,0
2018-04-15T02:33:22.994Z,0
2018-04-15T02:33:49.176Z,0
2018-04-15T02:34:15.389Z,0
2018-04-15T02:34:41.526Z,0
2018-04-15T02:35:07.671Z,0
2018-04-15T02:35:33.813Z,0
2018-04-15T02:36:00.027Z,0
2018-04-15T02:36:26.163Z,0
2018-04-15T02:36:52.305Z,0
2018-04-15T02:37:18.437Z,0
2018-04-15T02:37:44.594Z,0
2018-04-15T02:38:10.756Z,0
2018-04-15T02:38:36.919Z,0
2018-04-15T02:39:03.085Z,0
2018-04-15T02:39:29.248Z,0
2018-04-15T02:39:55.413Z,0
2018-04-15T02:40:21.582Z,0
2018-04-15T02:40:47.727Z,0
2018-04-15T02:41:13.865Z,0
2018-04-15T02:41:40.002Z,0
2018-04-15T02:42:06.141Z,0
2018-04-15T02:42:32.305Z,0
2018-04-15T02:42:58.468Z,0
2018-04-15T02:43:24.633Z,0
2018-04-15T02:43:50.772Z,0
2018-04-15T02:44:16.990Z,0
2018-04-15T02:44:43.154Z,0
2018-04-15T02:45:09.351Z,0
2018-04-15T02:45:35.537Z,0
2018-04-15T02:46:01.725Z,0
2018-04-15T02:46:27.892Z,0
2018-04-15T02:46:54.077Z,0
2018-04-15T02:47:20.217Z,0
2018-04-15T02:47:46.380Z,0
2018-04-15T02:48:12.570Z,0
2018-04-15T02:48:38.708Z,0
2018-04-15T02:49:04.900Z,0
2018-04-15T02:49:31.062Z,0
2018-04-15T02:49:57.247Z,0
2018-04-15T02:50:23.382Z,0
2018-04-15T02:50:49.521Z,0
2018-04-15T02:51:15.680Z,0
2018-04-15T02:51:41.844Z,0
2018-04-15T02:52:08.003Z,0
2018-04-15T02:52:34.149Z,0
2018-04-15T02:53:00.313Z,0
2018-04-15T02:53:26.456Z,0
2018-04-15T02:53:52.610Z,0
2018-04-15T02:54:18.756Z,0
2018-04-15T02:54:44.920Z,0
2018-04-15T02:55:11.084Z,0
2018-04-15T02:55:37.216Z,0
2018-04-15T02:56:03.428Z,0
2018-04-15T02:56:29.570Z,0
2018-04-15T02:56:55.704Z,0
2018-04-15T02:57:21.837Z,0
2018-04-15T02:57:47.999Z,0
2018-04-15T02:58:14.188Z,0
2018-04-15T02:58:40.362Z,0
2018-04-15T02:59:06.524Z,0
2018-04-15T02:59:32.681Z,0
2018-04-15T02:59:58.871Z,0
2018-04-15T03:00:25.036Z,0
2018-04-15T03:00:51.221Z,0
2018-04-15T03:01:17.371Z,0
2018-04-15T03:01:43.548Z,0
2018-04-15T03:02:09.689Z,0
2018-04-15T03:02:35.859Z,0
2018-04-15T03:03:02.036Z,0
2018-04-15T03:03:28.230Z,0
2018-04-15T03:03:54.366Z,0
2018-04-15T03:04:20.507Z,0
2018-04-15T03:04:46.642Z,0
2018-04-15T03:05:12.799Z,0
2018-04-15T03:05:38.953Z,0
2018-04-15T03:06:05.111Z,0
2018-04-15T03:06:31.250Z,0
2018-04-15T03:06:57.382Z,0
2018-04-15T03:07:23.640Z,0
2018-04-15T03:07:49.720Z,0
2018-04-15T03:08:15.887Z,0
2018-04-15T03:08:42.064Z,0
2018-04-15T03:09:08.204Z,0
2018-04-15T03:09:34.343Z,0
2018-04-15T03:10:00.530Z,0
2018-04-15T03:10:26.673Z,0
2018-04-15T03:10:52.859Z,0
2018-04-15T03:11:19.021Z,0
2018-04-15T03:11:45.183Z,0
2018-04-15T03:12:11.316Z,0
2018-04-15T03:12:37.482Z,0
2018-04-15T03:13:03.622Z,0
2018-04-15T03:13:29.760Z,0
2018-04-15T03:13:55.900Z,0
2018-04-15T03:14:22.039Z,0
2018-04-15T03:14:48.180Z,0
2018-04-15T03:15:14.321Z,0
2018-04-15T03:15:40.477Z,0
2018-04-15T03:16:06.617Z,0
2018-04-15T03:16:32.755Z,0
2018-04-15T03:16:58.919Z,0
2018-04-15T03:17:25.055Z,0
2018-04-15T03:17:51.221Z,0
2018-04-15T03:18:17.364Z,0
2018-04-15T03:18:43.498Z,0
2018-04-15T03:19:09.643Z,0
2018-04-15T03:19:35.779Z,0
2018-04-15T03:20:01.914Z,0
2018-04-15T03:20:28.054Z,0
2018-04-15T03:20:54.195Z,0
2018-04-15T03:21:20.340Z,0
2018-04-15T03:21:46.480Z,0
2018-04-15T03:22:12.645Z,0
2018-04-15T03:22:38.784Z,0
2018-04-15T03:23:04.921Z,0
2018-04-15T03:23:31.060Z,0
2018-04-15T03:23:57.192Z,0
2018-04-15T03:24:23.331Z,0
2018-04-15T03:24:49.474Z,0
2018-04-15T03:25:15.619Z,0
2018-04-15T03:25:41.758Z,0
2018-04-15T03:26:07.924Z,0
2018-04-15T03:26:34.081Z,0
2018-04-15T03:27:00.240Z,0
2018-04-15T03:27:26.383Z,0
2018-04-15T03:27:52.524Z,0
2018-04-15T03:28:18.660Z,0
2018-04-15T03:28:44.796Z,0
2018-04-15T03:29:10.939Z,0
2018-04-15T03:29:37.079Z,0
2018-04-15T03:30:03.261Z,0
2018-04-15T03:30:29.460Z,0
2018-04-15T03:30:55.619Z,0
2018-04-15T03:31:21.834Z,0
2018-04-15T03:31:48.019Z,0
2018-04-15T03:32:14.178Z,0
2018-04-15T03:32:40.348Z,0
2018-04-15T03:33:06.484Z,0
2018-04-15T03:33:32.621Z,0
2018-04-15T03:33:58.762Z,0
2018-04-15T03:34:24.900Z,0
2018-04-15T03:34:51.044Z,0
2018-04-15T03:35:17.185Z,0
2018-04-15T03:35:43.318Z,0
2018-04-15T03:36:09.464Z,0
2018-04-15T03:36:35.596Z,0
2018-04-15T03:37:01.760Z,0
2018-04-15T03:37:27.926Z,0
2018-04-15T03:37:54.074Z,0
2018-04-15T03:38:20.208Z,0
2018-04-15T03:38:46.370Z,0
2018-04-15T03:39:12.512Z,0
2018-04-15T03:39:38.651Z,0
2018-04-15T03:40:04.783Z,0
2018-04-15T03:40:30.951Z,0
2018-04-15T03:40:57.092Z,0
2018-04-15T03:41:23.231Z,0
2018-04-15T03:41:49.369Z,0
2018-04-15T03:42:15.565Z,0
2018-04-15T03:42:41.702Z,0
2018-04-15T03:43:07.840Z,0
2018-04-15T03:43:33.975Z,0
2018-04-15T03:44:00.112Z,0
2018-04-15T03:44:26.253Z,0
2018-04-15T03:44:52.389Z,0
2018-04-15T03:45:18.526Z,0
2018-04-15T03:45:44.687Z,0
2018-04-15T03:46:10.832Z,0
2018-04-15T03:46:36.972Z,0
2018-04-15T03:47:03.115Z,0
2018-04-15T03:47:29.297Z,0
2018-04-15T03:47:55.436Z,0
2018-04-15T03:48:21.593Z,0
2018-04-15T03:48:47.731Z,0
2018-04-15T03:49:13.872Z,0
2018-04-15T03:49:40.009Z,0
2018-04-15T03:50:06.145Z,0
2018-04-15T03:50:32.281Z,0
2018-04-15T03:50:58.458Z,0
2018-04-15T03:51:24.590Z,0
2018-04-15T03:51:50.734Z,0
2018-04-15T03:52:16.865Z,0
2018-04-15T03:52:43.009Z,0
2018-04-15T03:53:09.153Z,0
2018-04-15T03:53:35.342Z,0
2018-04-15T03:54:01.476Z,0
2018-04-15T03:54:27.641Z,0
2018-04-15T03:54:53.827Z,0
2018-04-15T03:55:19.973Z,0
2018-04-15T03:55:46.109Z,0
2018-04-15T03:56:12.272Z,0
2018-04-15T03:56:38.413Z,0
2018-04-15T03:57:04.552Z,0
2018-04-15T03:57:30.686Z,0
2018-04-15T03:57:56.829Z,0
2018-04-15T03:58:22.966Z,0
2018-04-15T03:58:49.111Z,0
2018-04-15T03:59:15.246Z,0
2018-04-15T03:59:41.394Z,0
2018-04-15T04:00:07.535Z,0
2018-04-15T04:00:33.677Z,0
2018-04-15T04:00:59.812Z,0
2018-04-15T04:01:25.971Z,0
2018-04-15T04:01:52.104Z,0
2018-04-15T04:02:18.252Z,0
2018-04-15T04:02:44.415Z,0
2018-04-15T04:03:10.554Z,0
2018-04-15T04:03:36.703Z,0
2018-04-15T04:04:02.833Z,0
2018-04-15T04:04:28.974Z,0
2018-04-15T04:04:55.113Z,0
2018-04-15T04:05:21.249Z,0
2018-04-15T04:05:47.389Z,0
2018-04-15T04:06:13.530Z,0
2018-04-15T04:06:39.672Z,0
2018-04-15T04:07:05.806Z,0
2018-04-15T04:07:31.950Z,0
2018-04-15T04:07:58.087Z,0
2018-04-15T04:08:24.223Z,0
2018-04-15T04:08:50.367Z,0
2018-04-15T04:09:16.509Z,0
2018-04-15T04:09:42.650Z,4
2018-04-15T04:10:08.779Z,4
2018-04-15T04:10:34.914Z,4
2018-04-15T04:11:01.060Z,4
2018-04-15T04:11:27.219Z,4
2018-04-15T04:11:53.361Z,4
2018-04-15T04:12:19.525Z,0
2018-04-15T04:12:45.667Z,0
2018-04-15T04:13:11.799Z,4
2018-04-15T04:13:37.938Z,4
2018-04-15T04:14:04.078Z,4
2018-04-15T04:14:30.212Z,4
2018-04-15T04:14:56.342Z,4
2018-04-15T04:15:22.484Z,4
2018-04-15T04:15:48.628Z,4
2018-04-15T04:16:14.788Z,4
2018-04-15T04:16:40.927Z,8
2018-04-15T04:17:07.066Z,8
2018-04-15T04:17:33.203Z,8
2018-04-15T04:17:59.351Z,8
2018-04-15T04:18:25.490Z,8
2018-04-15T04:18:51.628Z,8
2018-04-15T04:19:17.762Z,8
2018-04-15T04:19:43.901Z,8
2018-04-15T04:20:10.063Z,4
2018-04-15T04:20:36.205Z,4
2018-04-15T04:21:02.394Z,4
2018-04-15T04:21:28.526Z,4
2018-04-15T04:21:54.665Z,8
2018-04-15T04:22:20.800Z,8
2018-04-15T04:22:46.944Z,8
2018-04-15T04:23:13.084Z,8
2018-04-15T04:23:39.216Z,8
2018-04-15T04:24:05.378Z,8
2018-04-15T04:24:31.520Z,12
2018-04-15T04:24:57.653Z,12
2018-04-15T04:25:23.792Z,12
2018-04-15T04:25:49.932Z,12
2018-04-15T04:26:16.066Z,12
2018-04-15T04:26:42.209Z,16
2018-04-15T04:27:08.349Z,12
2018-04-15T04:27:34.492Z,16
2018-04-15T04:28:00.626Z,16
2018-04-15T04:28:26.771Z,16
2018-04-15T04:28:52.938Z,20
2018-04-15T04:29:19.078Z,24
2018-04-15T04:29:45.213Z,20
2018-04-15T04:30:11.352Z,24
2018-04-15T04:30:37.494Z,24
2018-04-15T04:31:03.646Z,24
2018-04-15T04:31:29.779Z,28
2018-04-15T04:31:55.929Z,24
2018-04-15T04:32:22.121Z,28
2018-04-15T04:32:48.280Z,32
2018-04-15T04:33:14.442Z,32
2018-04-15T04:33:40.624Z,32
2018-04-15T04:34:06.748Z,36
2018-04-15T04:34:32.883Z,36
2018-04-15T04:34:59.048Z,32
2018-04-15T04:35:25.186Z,32
2018-04-15T04:35:51.323Z,32
2018-04-15T04:36:17.491Z,36
2018-04-15T04:36:43.632Z,36
2018-04-15T04:37:09.771Z,40
2018-04-15T04:37:35.912Z,40
2018-04-15T04:38:02.066Z,40
2018-04-15T04:38:28.184Z,40
2018-04-15T04:38:54.343Z,44
2018-04-15T04:39:20.483Z,48
2018-04-15T04:39:46.642Z,44
2018-04-15T04:40:12.781Z,52
2018-04-15T04:40:38.912Z,52
2018-04-15T04:41:05.057Z,52
2018-04-15T04:41:31.200Z,52
2018-04-15T04:41:57.362Z,56
2018-04-15T04:42:23.526Z,56
2018-04-15T04:42:49.691Z,60
2018-04-15T04:43:15.817Z,60
2018-04-15T04:43:41.979Z,64
2018-04-15T04:44:08.118Z,68
2018-04-15T04:44:34.266Z,68
2018-04-15T04:45:00.453Z,72
2018-04-15T04:45:26.542Z,72
2018-04-15T04:45:52.699Z,76
2018-04-15T04:46:18.839Z,76
2018-04-15T04:46:45.026Z,80
2018-04-15T04:47:11.164Z,80
2018-04-15T04:47:37.327Z,80
2018-04-15T04:48:03.461Z,84
2018-04-15T04:48:29.629Z,88
2018-04-15T04:48:55.763Z,92
2018-04-15T04:49:21.932Z,96
2018-04-15T04:49:48.066Z,100
2018-04-15T04:50:14.217Z,108
2018-04-15T04:50:40.356Z,112
2018-04-15T04:51:06.496Z,120
2018-04-15T04:51:32.624Z,128
2018-04-15T04:51:58.762Z,132
2018-04-15T04:52:24.907Z,136
2018-04-15T04:52:51.041Z,140
2018-04-15T04:53:17.178Z,144
2018-04-15T04:53:43.322Z,148
2018-04-15T04:54:09.462Z,152
2018-04-15T04:54:35.617Z,152
2018-04-15T04:55:01.758Z,152
2018-04-15T04:55:27.895Z,160
2018-04-15T04:55:54.033Z,156
2018-04-15T04:56:20.188Z,156
2018-04-15T04:56:46.349Z,160
2018-04-15T04:57:12.485Z,160
2018-04-15T04:57:38.620Z,164
2018-04-15T04:58:04.760Z,168
2018-04-15T04:58:30.897Z,172
2018-04-15T04:58:57.037Z,184
2018-04-15T04:59:23.176Z,192
2018-04-15T04:59:49.319Z,200
2018-04-15T05:00:15.463Z,204
2018-04-15T05:00:41.600Z,212
2018-04-15T05:01:07.761Z,216
2018-04-15T05:01:33.917Z,220
2018-04-15T05:02:00.071Z,224
2018-04-15T05:02:26.237Z,228
2018-04-15T05:02:52.379Z,232
2018-04-15T05:03:18.518Z,232
2018-04-15T05:03:44.651Z,240
2018-04-15T05:04:10.785Z,244
2018-04-15T05:04:36.922Z,244
2018-04-15T05:05:03.055Z,248
2018-04-15T05:05:29.198Z,256
2018-04-15T05:05:55.352Z,264
2018-04-15T05:06:21.497Z,272
2018-04-15T05:06:47.630Z,276
2018-04-15T05:07:13.792Z,284
2018-04-15T05:07:40.014Z,296
2018-04-15T05:08:06.100Z,300
2018-04-15T05:08:32.269Z,308
2018-04-15T05:08:58.404Z,320
2018-04-15T05:09:24.540Z,324
2018-04-15T05:09:50.685Z,328
2018-04-15T05:10:16.822Z,332
2018-04-15T05:10:42.961Z,332
2018-04-15T05:11:09.113Z,336
2018-04-15T05:11:35.247Z,340
2018-04-15T05:12:01.388Z,344
2018-04-15T05:12:27.534Z,352
2018-04-15T05:12:53.662Z,364
2018-04-15T05:13:19.802Z,376
2018-04-15T05:13:45.944Z,388
2018-04-15T05:14:12.088Z,392
2018-04-15T05:14:38.223Z,404
2018-04-15T05:15:04.364Z,420
2018-04-15T05:15:30.501Z,428
2018-04-15T05:15:56.651Z,440
2018-04-15T05:16:22.781Z,452
2018-04-15T05:16:48.929Z,456
2018-04-15T05:17:15.066Z,456
2018-04-15T05:17:41.205Z,464
2018-04-15T05:18:07.361Z,464
2018-04-15T05:18:33.500Z,464
2018-04-15T05:18:59.638Z,456
2018-04-15T05:19:25.776Z,452
2018-04-15T05:19:51.914Z,476
2018-04-15T05:20:18.053Z,500
2018-04-15T05:20:44.216Z,512
2018-04-15T05:21:10.353Z,524
2018-04-15T05:21:36.495Z,532
2018-04-15T05:22:02.630Z,528
2018-04-15T05:22:28.764Z,524
2018-04-15T05:22:54.912Z,516
2018-04-15T05:23:21.080Z,516
2018-04-15T05:23:47.223Z,520
2018-04-15T05:24:13.375Z,528
2018-04-15T05:24:39.516Z,520
2018-04-15T05:25:05.657Z,512
2018-04-15T05:25:31.813Z,504
2018-04-15T05:25:57.955Z,500
2018-04-15T05:26:24.117Z,492
2018-04-15T05:26:50.267Z,488
2018-04-15T05:27:16.421Z,496
2018-04-15T05:27:42.609Z,496
2018-04-15T05:28:08.746Z,508
2018-04-15T05:28:34.909Z,516
2018-04-15T05:29:01.049Z,508
2018-04-15T05:29:27.189Z,492
2018-04-15T05:29:53.321Z,476
2018-04-15T05:30:19.461Z,448
2018-04-15T05:30:45.601Z,420
2018-04-15T05:31:11.761Z,404
2018-04-15T05:31:37.903Z,412
2018-04-15T05:32:04.045Z,404
2018-04-15T05:32:30.183Z,388
2018-04-15T05:32:56.320Z,384
2018-04-15T05:33:22.454Z,388
2018-04-15T05:33:48.600Z,380
2018-04-15T05:34:14.736Z,388
2018-04-15T05:34:40.870Z,416
2018-04-15T05:35:07.013Z,420
2018-04-15T05:35:33.156Z,424
2018-04-15T05:35:59.289Z,404
2018-04-15T05:36:25.428Z,376
2018-04-15T05:36:51.563Z,352
2018-04-15T05:37:17.715Z,332
2018-04-15T05:37:43.863Z,328
2018-04-15T05:38:10.021Z,332
2018-04-15T05:38:36.162Z,348
2018-04-15T05:39:02.359Z,380
2018-04-15T05:39:28.477Z,420
2018-04-15T05:39:54.669Z,424
2018-04-15T05:40:20.810Z,404
2018-04-15T05:40:46.948Z,404
2018-04-15T05:41:13.086Z,408
2018-04-15T05:41:39.231Z,416
2018-04-15T05:42:05.371Z,416
2018-04-15T05:42:31.509Z,424
2018-04-15T05:42:57.644Z,448
2018-04-15T05:43:23.786Z,464
2018-04-15T05:43:49.959Z,448
2018-04-15T05:44:16.099Z,424
2018-04-15T05:44:42.244Z,432
2018-04-15T05:45:08.375Z,464
2018-04-15T05:45:34.518Z,464
2018-04-15T05:46:00.653Z,452
2018-04-15T05:46:26.788Z,448
2018-04-15T05:46:52.927Z,460
2018-04-15T05:47:19.066Z,456
2018-04-15T05:47:45.205Z,472
2018-04-15T05:48:11.342Z,508
2018-04-15T05:48:37.493Z,564
2018-04-15T05:49:03.648Z,584
2018-04-15T05:49:29.788Z,592
2018-04-15T05:49:55.944Z,588
2018-04-15T05:50:22.087Z,548
2018-04-15T05:50:48.223Z,512
2018-04-15T05:51:14.381Z,476
2018-04-15T05:51:40.524Z,448
2018-04-15T05:52:06.663Z,476
2018-04-15T05:52:32.801Z,548
2018-04-15T05:52:58.941Z,576
2018-04-15T05:53:25.079Z,560
2018-04-15T05:53:51.263Z,568
2018-04-15T05:54:17.358Z,644
2018-04-15T05:54:43.497Z,760
2018-04-15T05:55:09.636Z,908
2018-04-15T05:55:35.772Z,1016
2018-04-15T05:56:01.914Z,1104
2018-04-15T05:56:28.054Z,1164
2018-04-15T05:56:54.199Z,1228
2018-04-15T05:57:20.337Z,1260
2018-04-15T05:57:46.500Z,1272
2018-04-15T05:58:12.637Z,1288
2018-04-15T05:58:38.779Z,1268
2018-04-15T05:59:04.912Z,1284
2018-04-15T05:59:31.067Z,1280
2018-04-15T05:59:57.188Z,1284
2018-04-15T06:00:23.351Z,1296
2018-04-15T06:00:49.486Z,1336
2018-04-15T06:01:15.624Z,1344
2018-04-15T06:01:41.770Z,1316
2018-04-15T06:02:07.953Z,1292
2018-04-15T06:02:34.090Z,1288
2018-04-15T06:03:00.227Z,1296
2018-04-15T06:03:26.399Z,1276
2018-04-15T06:03:52.541Z,1316
2018-04-15T06:04:18.680Z,1352
2018-04-15T06:04:44.813Z,1400
2018-04-15T06:05:10.969Z,1400
2018-04-15T06:05:37.100Z,1376
2018-04-15T06:06:03.236Z,1392
2018-04-15T06:06:29.371Z,1384
2018-04-15T06:06:55.539Z,1328
2018-04-15T06:07:21.680Z,1268
2018-04-15T06:07:47.837Z,1276
2018-04-15T06:08:13.983Z,1300
2018-04-15T06:08:40.143Z,1320
2018-04-15T06:09:06.303Z,1344
2018-04-15T06:09:32.442Z,1288
2018-04-15T06:09:58.577Z,1188
2018-04-15T06:10:24.725Z,1076
2018-04-15T06:10:50.914Z,980
2018-04-15T06:11:17.054Z,876
2018-04-15T06:11:43.189Z,780
2018-04-15T06:12:09.330Z,704
2018-04-15T06:12:35.472Z,616
2018-04-15T06:13:01.607Z,576
2018-04-15T06:13:27.748Z,560
2018-04-15T06:13:53.906Z,564
2018-04-15T06:14:20.053Z,588
2018-04-15T06:14:46.182Z,616
2018-04-15T06:15:12.351Z,664
2018-04-15T06:15:38.494Z,740
2018-04-15T06:16:04.635Z,844
2018-04-15T06:16:30.772Z,964
2018-04-15T06:16:56.911Z,1100
2018-04-15T06:17:23.049Z,1240
2018-04-15T06:17:49.213Z,1408
2018-04-15T06:18:15.371Z,1652
2018-04-15T06:18:41.506Z,1888